sensor_id;sensor_type;location;lat;lon;timestamp;P1;durP1;ratioP1;P2;durP2;ratioP2
16804;SDS011;8520;50.102;20.010;2024-01-30T00:02:30;90.30;;;82.10;;
16804;SDS011;8520;50.102;20.010;2024-01-30T00:04:59;91.17;;;82.97;;
16804;SDS011;8520;50.102;20.010;2024-01-30T00:07:27;89.67;;;81.60;;
16804;SDS011;8520;50.102;20.010;2024-01-30T00:09:55;92.47;;;83.80;;
16804;SDS011;8520;50.102;20.010;2024-01-30T00:12:23;91.67;;;83.53;;
16804;SDS011;8520;50.102;20.010;2024-01-30T00:14:52;90.23;;;82.23;;
16804;SDS011;8520;50.102;20.010;2024-01-30T00:17:21;90.37;;;82.13;;
16804;SDS011;8520;50.102;20.010;2024-01-30T00:19:49;89.67;;;81.87;;
16804;SDS011;8520;50.102;20.010;2024-01-30T00:22:18;91.13;;;82.83;;
16804;SDS011;8520;50.102;20.010;2024-01-30T00:24:46;90.93;;;82.67;;
16804;SDS011;8520;50.102;20.010;2024-01-30T00:27:14;92.00;;;83.50;;
16804;SDS011;8520;50.102;20.010;2024-01-30T00:29:42;90.47;;;82.73;;
16804;SDS011;8520;50.102;20.010;2024-01-30T00:32:10;89.33;;;81.37;;
16804;SDS011;8520;50.102;20.010;2024-01-30T00:34:38;88.30;;;80.70;;
16804;SDS011;8520;50.102;20.010;2024-01-30T00:37:06;88.80;;;81.07;;
16804;SDS011;8520;50.102;20.010;2024-01-30T00:39:36;87.60;;;80.03;;
16804;SDS011;8520;50.102;20.010;2024-01-30T00:42:04;89.23;;;81.57;;
16804;SDS011;8520;50.102;20.010;2024-01-30T00:44:34;94.60;;;86.17;;
16804;SDS011;8520;50.102;20.010;2024-01-30T00:47:02;93.03;;;84.53;;
16804;SDS011;8520;50.102;20.010;2024-01-30T00:49:30;93.23;;;84.97;;
16804;SDS011;8520;50.102;20.010;2024-01-30T00:51:58;93.50;;;85.20;;
16804;SDS011;8520;50.102;20.010;2024-01-30T00:54:27;95.83;;;87.33;;
16804;SDS011;8520;50.102;20.010;2024-01-30T00:56:56;92.70;;;84.63;;
16804;SDS011;8520;50.102;20.010;2024-01-30T00:59:24;92.30;;;84.07;;
16804;SDS011;8520;50.102;20.010;2024-01-30T01:01:52;86.90;;;79.13;;
16804;SDS011;8520;50.102;20.010;2024-01-30T01:04:20;86.50;;;79.00;;
16804;SDS011;8520;50.102;20.010;2024-01-30T01:06:49;80.77;;;73.83;;
16804;SDS011;8520;50.102;20.010;2024-01-30T01:09:17;82.37;;;75.57;;
16804;SDS011;8520;50.102;20.010;2024-01-30T01:11:45;84.43;;;77.13;;
16804;SDS011;8520;50.102;20.010;2024-01-30T01:14:14;82.23;;;75.30;;
16804;SDS011;8520;50.102;20.010;2024-01-30T01:16:42;82.03;;;75.10;;
16804;SDS011;8520;50.102;20.010;2024-01-30T01:19:10;85.63;;;78.17;;
16804;SDS011;8520;50.102;20.010;2024-01-30T01:21:38;88.63;;;80.93;;
16804;SDS011;8520;50.102;20.010;2024-01-30T01:24:06;89.97;;;82.03;;
16804;SDS011;8520;50.102;20.010;2024-01-30T01:26:34;83.33;;;76.17;;
16804;SDS011;8520;50.102;20.010;2024-01-30T01:29:02;80.00;;;73.20;;
16804;SDS011;8520;50.102;20.010;2024-01-30T01:31:37;78.60;;;72.00;;
16804;SDS011;8520;50.102;20.010;2024-01-30T01:34:10;81.40;;;74.37;;
16804;SDS011;8520;50.102;20.010;2024-01-30T01:36:39;83.07;;;75.87;;
16804;SDS011;8520;50.102;20.010;2024-01-30T01:39:07;81.73;;;74.50;;
16804;SDS011;8520;50.102;20.010;2024-01-30T01:41:35;81.17;;;74.17;;
16804;SDS011;8520;50.102;20.010;2024-01-30T01:44:03;78.87;;;71.87;;
16804;SDS011;8520;50.102;20.010;2024-01-30T01:46:32;80.77;;;73.67;;
16804;SDS011;8520;50.102;20.010;2024-01-30T01:49:02;85.47;;;77.97;;
16804;SDS011;8520;50.102;20.010;2024-01-30T01:51:31;86.17;;;78.47;;
16804;SDS011;8520;50.102;20.010;2024-01-30T01:53:59;92.43;;;84.03;;
16804;SDS011;8520;50.102;20.010;2024-01-30T01:56:30;86.97;;;79.27;;
16804;SDS011;8520;50.102;20.010;2024-01-30T01:58:59;83.30;;;75.90;;
16804;SDS011;8520;50.102;20.010;2024-01-30T02:01:27;80.57;;;73.23;;
16804;SDS011;8520;50.102;20.010;2024-01-30T02:03:56;79.43;;;72.40;;
16804;SDS011;8520;50.102;20.010;2024-01-30T02:06:26;80.40;;;73.40;;
16804;SDS011;8520;50.102;20.010;2024-01-30T02:08:54;82.97;;;75.60;;
16804;SDS011;8520;50.102;20.010;2024-01-30T02:11:22;82.80;;;75.43;;
16804;SDS011;8520;50.102;20.010;2024-01-30T02:13:50;83.57;;;75.93;;
16804;SDS011;8520;50.102;20.010;2024-01-30T02:16:18;79.63;;;72.70;;
16804;SDS011;8520;50.102;20.010;2024-01-30T02:18:46;79.60;;;72.57;;
16804;SDS011;8520;50.102;20.010;2024-01-30T02:21:16;79.23;;;72.23;;
16804;SDS011;8520;50.102;20.010;2024-01-30T02:23:44;74.87;;;68.30;;
16804;SDS011;8520;50.102;20.010;2024-01-30T02:26:13;88.30;;;80.40;;
16804;SDS011;8520;50.102;20.010;2024-01-30T02:28:42;89.03;;;81.10;;
16804;SDS011;8520;50.102;20.010;2024-01-30T02:31:09;91.37;;;82.70;;
16804;SDS011;8520;50.102;20.010;2024-01-30T02:33:38;75.40;;;68.83;;
16804;SDS011;8520;50.102;20.010;2024-01-30T02:36:06;77.37;;;70.63;;
16804;SDS011;8520;50.102;20.010;2024-01-30T02:38:35;77.20;;;70.50;;
16804;SDS011;8520;50.102;20.010;2024-01-30T02:41:03;75.40;;;68.97;;
16804;SDS011;8520;50.102;20.010;2024-01-30T02:43:31;79.40;;;72.40;;
16804;SDS011;8520;50.102;20.010;2024-01-30T02:45:59;82.57;;;75.37;;
16804;SDS011;8520;50.102;20.010;2024-01-30T02:48:27;86.30;;;78.73;;
16804;SDS011;8520;50.102;20.010;2024-01-30T02:50:55;88.17;;;80.30;;
16804;SDS011;8520;50.102;20.010;2024-01-30T02:53:24;88.93;;;81.07;;
16804;SDS011;8520;50.102;20.010;2024-01-30T02:55:53;86.23;;;78.73;;
16804;SDS011;8520;50.102;20.010;2024-01-30T02:58:21;93.23;;;84.63;;
16804;SDS011;8520;50.102;20.010;2024-01-30T03:00:49;89.47;;;81.47;;
16804;SDS011;8520;50.102;20.010;2024-01-30T03:03:17;92.57;;;84.27;;
16804;SDS011;8520;50.102;20.010;2024-01-30T03:05:45;91.77;;;83.40;;
16804;SDS011;8520;50.102;20.010;2024-01-30T03:08:13;85.30;;;77.97;;
16804;SDS011;8520;50.102;20.010;2024-01-30T03:10:41;91.17;;;82.97;;
16804;SDS011;8520;50.102;20.010;2024-01-30T03:13:11;90.90;;;82.77;;
16804;SDS011;8520;50.102;20.010;2024-01-30T03:15:39;91.93;;;83.63;;
16804;SDS011;8520;50.102;20.010;2024-01-30T03:18:07;94.80;;;86.17;;
16804;SDS011;8520;50.102;20.010;2024-01-30T03:20:35;94.37;;;85.87;;
16804;SDS011;8520;50.102;20.010;2024-01-30T03:23:03;88.57;;;80.87;;
16804;SDS011;8520;50.102;20.010;2024-01-30T03:25:32;87.70;;;79.63;;
16804;SDS011;8520;50.102;20.010;2024-01-30T03:28:00;96.93;;;88.20;;
16804;SDS011;8520;50.102;20.010;2024-01-30T03:30:29;77.70;;;70.80;;
16804;SDS011;8520;50.102;20.010;2024-01-30T03:32:57;97.43;;;88.57;;
16804;SDS011;8520;50.102;20.010;2024-01-30T03:35:25;78.00;;;71.23;;
16804;SDS011;8520;50.102;20.010;2024-01-30T03:37:53;79.37;;;72.50;;
16804;SDS011;8520;50.102;20.010;2024-01-30T03:40:21;79.53;;;72.60;;
16804;SDS011;8520;50.102;20.010;2024-01-30T03:42:49;80.43;;;73.30;;
16804;SDS011;8520;50.102;20.010;2024-01-30T03:45:17;83.67;;;76.27;;
16804;SDS011;8520;50.102;20.010;2024-01-30T03:47:47;86.17;;;78.40;;
16804;SDS011;8520;50.102;20.010;2024-01-30T03:50:15;83.00;;;75.83;;
16804;SDS011;8520;50.102;20.010;2024-01-30T03:52:44;81.27;;;74.20;;
16804;SDS011;8520;50.102;20.010;2024-01-30T03:55:11;82.13;;;74.90;;
16804;SDS011;8520;50.102;20.010;2024-01-30T03:57:39;82.53;;;75.43;;
16804;SDS011;8520;50.102;20.010;2024-01-30T04:00:08;82.03;;;75.07;;
16804;SDS011;8520;50.102;20.010;2024-01-30T04:02:39;79.90;;;73.03;;
16804;SDS011;8520;50.102;20.010;2024-01-30T04:05:08;81.50;;;74.50;;
16804;SDS011;8520;50.102;20.010;2024-01-30T04:07:37;81.27;;;74.07;;
16804;SDS011;8520;50.102;20.010;2024-01-30T04:10:05;80.83;;;73.73;;
16804;SDS011;8520;50.102;20.010;2024-01-30T04:12:33;83.20;;;75.87;;
16804;SDS011;8520;50.102;20.010;2024-01-30T04:15:01;81.73;;;74.83;;
16804;SDS011;8520;50.102;20.010;2024-01-30T04:17:30;79.93;;;73.03;;
16804;SDS011;8520;50.102;20.010;2024-01-30T04:19:59;74.57;;;68.27;;
16804;SDS011;8520;50.102;20.010;2024-01-30T04:22:29;77.53;;;70.97;;
16804;SDS011;8520;50.102;20.010;2024-01-30T04:24:57;77.43;;;70.93;;
16804;SDS011;8520;50.102;20.010;2024-01-30T04:27:25;81.73;;;74.70;;
16804;SDS011;8520;50.102;20.010;2024-01-30T04:29:53;72.90;;;66.60;;
16804;SDS011;8520;50.102;20.010;2024-01-30T04:32:20;73.17;;;66.63;;
16804;SDS011;8520;50.102;20.010;2024-01-30T04:34:48;74.53;;;68.03;;
16804;SDS011;8520;50.102;20.010;2024-01-30T04:37:16;78.37;;;71.37;;
16804;SDS011;8520;50.102;20.010;2024-01-30T04:39:46;77.17;;;70.27;;
16804;SDS011;8520;50.102;20.010;2024-01-30T04:42:14;74.63;;;68.07;;
16804;SDS011;8520;50.102;20.010;2024-01-30T04:44:42;74.83;;;68.27;;
16804;SDS011;8520;50.102;20.010;2024-01-30T04:47:10;74.77;;;68.23;;
16804;SDS011;8520;50.102;20.010;2024-01-30T04:49:39;75.30;;;68.60;;
16804;SDS011;8520;50.102;20.010;2024-01-30T04:52:07;76.00;;;69.37;;
16804;SDS011;8520;50.102;20.010;2024-01-30T04:54:35;71.37;;;65.10;;
16804;SDS011;8520;50.102;20.010;2024-01-30T04:57:04;69.57;;;63.60;;
16804;SDS011;8520;50.102;20.010;2024-01-30T04:59:36;63.47;;;58.03;;
16804;SDS011;8520;50.102;20.010;2024-01-30T05:02:04;67.00;;;61.30;;
16804;SDS011;8520;50.102;20.010;2024-01-30T05:04:32;64.00;;;58.37;;
16804;SDS011;8520;50.102;20.010;2024-01-30T05:07:00;67.80;;;61.80;;
16804;SDS011;8520;50.102;20.010;2024-01-30T05:09:28;70.07;;;63.80;;
16804;SDS011;8520;50.102;20.010;2024-01-30T05:11:56;75.70;;;68.80;;
16804;SDS011;8520;50.102;20.010;2024-01-30T05:14:26;72.47;;;65.87;;
16804;SDS011;8520;50.102;20.010;2024-01-30T05:16:54;73.50;;;66.80;;
16804;SDS011;8520;50.102;20.010;2024-01-30T05:19:22;71.17;;;64.70;;
16804;SDS011;8520;50.102;20.010;2024-01-30T05:21:50;68.40;;;62.23;;
16804;SDS011;8520;50.102;20.010;2024-01-30T05:24:18;71.07;;;64.77;;
16804;SDS011;8520;50.102;20.010;2024-01-30T05:26:47;70.77;;;64.43;;
16804;SDS011;8520;50.102;20.010;2024-01-30T05:29:15;69.87;;;63.70;;
16804;SDS011;8520;50.102;20.010;2024-01-30T05:31:44;71.13;;;64.73;;
16804;SDS011;8520;50.102;20.010;2024-01-30T05:34:13;74.47;;;67.70;;
16804;SDS011;8520;50.102;20.010;2024-01-30T05:36:41;74.13;;;67.43;;
16804;SDS011;8520;50.102;20.010;2024-01-30T05:39:09;72.53;;;65.87;;
16804;SDS011;8520;50.102;20.010;2024-01-30T05:41:37;70.63;;;64.43;;
16804;SDS011;8520;50.102;20.010;2024-01-30T05:44:05;77.23;;;70.10;;
16804;SDS011;8520;50.102;20.010;2024-01-30T05:46:35;73.80;;;67.20;;
16804;SDS011;8520;50.102;20.010;2024-01-30T05:49:04;77.60;;;70.07;;
16804;SDS011;8520;50.102;20.010;2024-01-30T05:51:32;78.07;;;70.67;;
16804;SDS011;8520;50.102;20.010;2024-01-30T05:54:00;76.97;;;69.93;;
16804;SDS011;8520;50.102;20.010;2024-01-30T05:56:30;75.77;;;68.90;;
16804;SDS011;8520;50.102;20.010;2024-01-30T05:58:58;79.47;;;71.87;;
16804;SDS011;8520;50.102;20.010;2024-01-30T06:01:26;78.73;;;71.60;;
16804;SDS011;8520;50.102;20.010;2024-01-30T06:03:56;79.80;;;72.47;;
16804;SDS011;8520;50.102;20.010;2024-01-30T06:06:25;81.07;;;73.73;;
16804;SDS011;8520;50.102;20.010;2024-01-30T06:08:53;82.13;;;74.47;;
16804;SDS011;8520;50.102;20.010;2024-01-30T06:11:22;83.20;;;75.40;;
16804;SDS011;8520;50.102;20.010;2024-01-30T06:13:50;83.37;;;75.27;;
16804;SDS011;8520;50.102;20.010;2024-01-30T06:16:18;89.43;;;80.77;;
16804;SDS011;8520;50.102;20.010;2024-01-30T06:18:47;89.60;;;80.93;;
16804;SDS011;8520;50.102;20.010;2024-01-30T06:21:16;90.33;;;81.50;;
16804;SDS011;8520;50.102;20.010;2024-01-30T06:23:45;93.30;;;84.17;;
16804;SDS011;8520;50.102;20.010;2024-01-30T06:26:13;87.37;;;78.90;;
16804;SDS011;8520;50.102;20.010;2024-01-30T06:28:41;90.77;;;82.27;;
16804;SDS011;8520;50.102;20.010;2024-01-30T06:31:09;89.60;;;81.27;;
16804;SDS011;8520;50.102;20.010;2024-01-30T06:33:37;92.43;;;83.60;;
16804;SDS011;8520;50.102;20.010;2024-01-30T06:36:05;98.97;;;89.63;;
16804;SDS011;8520;50.102;20.010;2024-01-30T06:38:33;96.37;;;87.27;;
16804;SDS011;8520;50.102;20.010;2024-01-30T06:41:02;93.37;;;84.37;;
16804;SDS011;8520;50.102;20.010;2024-01-30T06:43:30;93.33;;;84.80;;
16804;SDS011;8520;50.102;20.010;2024-01-30T06:45:58;103.67;;;93.73;;
16804;SDS011;8520;50.102;20.010;2024-01-30T06:48:26;106.20;;;95.70;;
16804;SDS011;8520;50.102;20.010;2024-01-30T06:50:54;97.60;;;88.37;;
16804;SDS011;8520;50.102;20.010;2024-01-30T06:53:24;96.63;;;87.40;;
16804;SDS011;8520;50.102;20.010;2024-01-30T06:55:52;98.20;;;88.67;;
16804;SDS011;8520;50.102;20.010;2024-01-30T06:58:22;96.83;;;87.67;;
16804;SDS011;8520;50.102;20.010;2024-01-30T07:00:50;94.90;;;86.03;;
16804;SDS011;8520;50.102;20.010;2024-01-30T07:03:18;101.63;;;91.53;;
16804;SDS011;8520;50.102;20.010;2024-01-30T07:05:46;102.03;;;91.90;;
16804;SDS011;8520;50.102;20.010;2024-01-30T07:08:14;105.40;;;95.07;;
16804;SDS011;8520;50.102;20.010;2024-01-30T07:10:44;109.97;;;99.23;;
16804;SDS011;8520;50.102;20.010;2024-01-30T07:13:12;113.20;;;102.00;;
16804;SDS011;8520;50.102;20.010;2024-01-30T07:15:41;111.33;;;100.60;;
16804;SDS011;8520;50.102;20.010;2024-01-30T07:18:09;116.60;;;105.23;;
16804;SDS011;8520;50.102;20.010;2024-01-30T07:20:37;107.43;;;96.77;;
16804;SDS011;8520;50.102;20.010;2024-01-30T07:23:09;104.47;;;94.13;;
16804;SDS011;8520;50.102;20.010;2024-01-30T07:25:40;111.17;;;100.37;;
16804;SDS011;8520;50.102;20.010;2024-01-30T07:28:08;107.83;;;97.20;;
16804;SDS011;8520;50.102;20.010;2024-01-30T07:30:37;105.60;;;95.33;;
16804;SDS011;8520;50.102;20.010;2024-01-30T07:33:06;105.00;;;94.90;;
16804;SDS011;8520;50.102;20.010;2024-01-30T07:35:35;98.60;;;89.57;;
16804;SDS011;8520;50.102;20.010;2024-01-30T07:38:03;99.33;;;90.07;;
16804;SDS011;8520;50.102;20.010;2024-01-30T07:40:31;92.60;;;83.90;;
16804;SDS011;8520;50.102;20.010;2024-01-30T07:43:00;96.57;;;87.67;;
16804;SDS011;8520;50.102;20.010;2024-01-30T07:45:30;100.63;;;91.00;;
16804;SDS011;8520;50.102;20.010;2024-01-30T07:47:59;100.47;;;90.63;;
16804;SDS011;8520;50.102;20.010;2024-01-30T07:50:29;97.83;;;88.23;;
16804;SDS011;8520;50.102;20.010;2024-01-30T07:52:59;102.00;;;92.23;;
16804;SDS011;8520;50.102;20.010;2024-01-30T07:55:27;102.57;;;92.63;;
16804;SDS011;8520;50.102;20.010;2024-01-30T07:57:55;96.43;;;87.43;;
16804;SDS011;8520;50.102;20.010;2024-01-30T08:00:23;88.17;;;79.80;;
16804;SDS011;8520;50.102;20.010;2024-01-30T08:02:51;86.10;;;78.13;;
16804;SDS011;8520;50.102;20.010;2024-01-30T08:05:21;83.83;;;76.07;;
16804;SDS011;8520;50.102;20.010;2024-01-30T08:07:51;83.20;;;75.23;;
16804;SDS011;8520;50.102;20.010;2024-01-30T08:10:19;87.30;;;79.03;;
16804;SDS011;8520;50.102;20.010;2024-01-30T08:12:48;83.17;;;75.27;;
16804;SDS011;8520;50.102;20.010;2024-01-30T08:15:15;82.60;;;74.90;;
16804;SDS011;8520;50.102;20.010;2024-01-30T08:17:44;82.10;;;74.23;;
16804;SDS011;8520;50.102;20.010;2024-01-30T08:20:12;80.43;;;73.00;;
16804;SDS011;8520;50.102;20.010;2024-01-30T08:22:40;77.73;;;70.00;;
16804;SDS011;8520;50.102;20.010;2024-01-30T08:25:10;80.80;;;73.33;;
16804;SDS011;8520;50.102;20.010;2024-01-30T08:27:38;79.47;;;72.00;;
16804;SDS011;8520;50.102;20.010;2024-01-30T08:30:06;80.13;;;72.47;;
16804;SDS011;8520;50.102;20.010;2024-01-30T08:32:34;73.53;;;66.77;;
16804;SDS011;8520;50.102;20.010;2024-01-30T08:35:03;71.10;;;64.13;;
16804;SDS011;8520;50.102;20.010;2024-01-30T08:37:31;74.37;;;66.97;;
16804;SDS011;8520;50.102;20.010;2024-01-30T08:39:59;73.13;;;65.87;;
16804;SDS011;8520;50.102;20.010;2024-01-30T08:42:30;70.80;;;63.93;;
16804;SDS011;8520;50.102;20.010;2024-01-30T08:44:58;69.77;;;63.07;;
16804;SDS011;8520;50.102;20.010;2024-01-30T08:47:26;71.23;;;64.43;;
16804;SDS011;8520;50.102;20.010;2024-01-30T08:49:54;72.57;;;65.83;;
16804;SDS011;8520;50.102;20.010;2024-01-30T08:52:22;69.70;;;63.10;;
16804;SDS011;8520;50.102;20.010;2024-01-30T08:54:50;70.10;;;63.13;;
16804;SDS011;8520;50.102;20.010;2024-01-30T08:57:18;71.37;;;64.50;;
16804;SDS011;8520;50.102;20.010;2024-01-30T08:59:47;63.40;;;57.43;;
16804;SDS011;8520;50.102;20.010;2024-01-30T09:02:16;60.00;;;54.23;;
16804;SDS011;8520;50.102;20.010;2024-01-30T09:04:45;62.30;;;56.37;;
16804;SDS011;8520;50.102;20.010;2024-01-30T09:07:13;58.87;;;53.03;;
16804;SDS011;8520;50.102;20.010;2024-01-30T09:09:41;58.43;;;52.93;;
16804;SDS011;8520;50.102;20.010;2024-01-30T09:12:09;55.00;;;49.90;;
16804;SDS011;8520;50.102;20.010;2024-01-30T09:14:39;54.57;;;49.43;;
16804;SDS011;8520;50.102;20.010;2024-01-30T09:17:08;47.40;;;43.03;;
16804;SDS011;8520;50.102;20.010;2024-01-30T09:19:36;46.63;;;42.17;;
16804;SDS011;8520;50.102;20.010;2024-01-30T09:22:04;43.87;;;39.67;;
16804;SDS011;8520;50.102;20.010;2024-01-30T09:24:33;45.57;;;41.07;;
16804;SDS011;8520;50.102;20.010;2024-01-30T09:27:01;43.17;;;39.17;;
16804;SDS011;8520;50.102;20.010;2024-01-30T09:29:29;43.50;;;39.30;;
16804;SDS011;8520;50.102;20.010;2024-01-30T09:31:57;42.57;;;38.50;;
16804;SDS011;8520;50.102;20.010;2024-01-30T09:34:27;42.50;;;38.27;;
16804;SDS011;8520;50.102;20.010;2024-01-30T09:36:55;45.33;;;40.47;;
16804;SDS011;8520;50.102;20.010;2024-01-30T09:39:23;45.90;;;41.10;;
16804;SDS011;8520;50.102;20.010;2024-01-30T09:41:53;41.57;;;37.60;;
16804;SDS011;8520;50.102;20.010;2024-01-30T09:44:22;38.07;;;34.10;;
16804;SDS011;8520;50.102;20.010;2024-01-30T09:46:50;37.37;;;33.77;;
16804;SDS011;8520;50.102;20.010;2024-01-30T09:49:18;37.13;;;33.43;;
16804;SDS011;8520;50.102;20.010;2024-01-30T09:51:49;42.73;;;38.33;;
16804;SDS011;8520;50.102;20.010;2024-01-30T09:54:18;36.43;;;32.90;;
16804;SDS011;8520;50.102;20.010;2024-01-30T09:56:47;36.50;;;32.90;;
16804;SDS011;8520;50.102;20.010;2024-01-30T09:59:15;35.23;;;31.77;;
16804;SDS011;8520;50.102;20.010;2024-01-30T10:01:43;34.30;;;30.80;;
16804;SDS011;8520;50.102;20.010;2024-01-30T10:04:11;33.37;;;30.07;;
16804;SDS011;8520;50.102;20.010;2024-01-30T10:06:40;31.93;;;28.83;;
16804;SDS011;8520;50.102;20.010;2024-01-30T10:09:09;32.77;;;29.00;;
16804;SDS011;8520;50.102;20.010;2024-01-30T10:11:38;32.87;;;29.50;;
16804;SDS011;8520;50.102;20.010;2024-01-30T10:14:05;33.53;;;30.23;;
16804;SDS011;8520;50.102;20.010;2024-01-30T10:16:34;31.87;;;28.57;;
16804;SDS011;8520;50.102;20.010;2024-01-30T10:19:02;30.83;;;27.77;;
16804;SDS011;8520;50.102;20.010;2024-01-30T10:21:30;30.43;;;27.43;;
16804;SDS011;8520;50.102;20.010;2024-01-30T10:23:59;29.77;;;26.87;;
16804;SDS011;8520;50.102;20.010;2024-01-30T10:26:28;28.30;;;25.37;;
16804;SDS011;8520;50.102;20.010;2024-01-30T10:28:59;27.47;;;24.73;;
16804;SDS011;8520;50.102;20.010;2024-01-30T10:31:27;28.47;;;25.77;;
16804;SDS011;8520;50.102;20.010;2024-01-30T10:33:55;27.90;;;25.00;;
16804;SDS011;8520;50.102;20.010;2024-01-30T10:36:39;28.20;;;25.40;;
16804;SDS011;8520;50.102;20.010;2024-01-30T10:39:07;27.73;;;25.03;;
16804;SDS011;8520;50.102;20.010;2024-01-30T10:41:39;27.13;;;24.50;;
16804;SDS011;8520;50.102;20.010;2024-01-30T10:44:10;28.50;;;25.40;;
16804;SDS011;8520;50.102;20.010;2024-01-30T10:46:39;25.83;;;23.30;;
16804;SDS011;8520;50.102;20.010;2024-01-30T10:49:08;24.80;;;22.40;;
16804;SDS011;8520;50.102;20.010;2024-01-30T10:51:37;25.27;;;22.67;;
16804;SDS011;8520;50.102;20.010;2024-01-30T10:54:06;25.37;;;22.87;;
16804;SDS011;8520;50.102;20.010;2024-01-30T10:56:36;24.37;;;22.07;;
16804;SDS011;8520;50.102;20.010;2024-01-30T10:59:04;26.53;;;23.80;;
16804;SDS011;8520;50.102;20.010;2024-01-30T11:01:36;26.80;;;24.20;;
16804;SDS011;8520;50.102;20.010;2024-01-30T11:04:05;27.90;;;24.33;;
16804;SDS011;8520;50.102;20.010;2024-01-30T11:06:40;28.13;;;25.47;;
16804;SDS011;8520;50.102;20.010;2024-01-30T11:09:10;27.23;;;24.53;;
16804;SDS011;8520;50.102;20.010;2024-01-30T11:11:50;28.67;;;25.77;;
16804;SDS011;8520;50.102;20.010;2024-01-30T11:14:24;27.13;;;24.33;;
16804;SDS011;8520;50.102;20.010;2024-01-30T11:16:53;26.87;;;24.23;;
16804;SDS011;8520;50.102;20.010;2024-01-30T11:19:22;28.07;;;25.27;;
16804;SDS011;8520;50.102;20.010;2024-01-30T11:21:50;29.53;;;26.40;;
16804;SDS011;8520;50.102;20.010;2024-01-30T11:24:21;29.03;;;25.93;;
16804;SDS011;8520;50.102;20.010;2024-01-30T11:26:55;31.70;;;26.90;;
16804;SDS011;8520;50.102;20.010;2024-01-30T11:29:24;29.43;;;26.33;;
16804;SDS011;8520;50.102;20.010;2024-01-30T11:31:52;29.77;;;26.47;;
16804;SDS011;8520;50.102;20.010;2024-01-30T11:34:20;29.13;;;26.03;;
16804;SDS011;8520;50.102;20.010;2024-01-30T11:36:51;30.30;;;26.57;;
16804;SDS011;8520;50.102;20.010;2024-01-30T11:39:21;29.00;;;26.00;;
16804;SDS011;8520;50.102;20.010;2024-01-30T11:41:52;30.17;;;26.87;;
16804;SDS011;8520;50.102;20.010;2024-01-30T11:44:20;28.80;;;25.77;;
16804;SDS011;8520;50.102;20.010;2024-01-30T11:46:48;27.67;;;25.07;;
16804;SDS011;8520;50.102;20.010;2024-01-30T11:49:16;29.73;;;25.70;;
16804;SDS011;8520;50.102;20.010;2024-01-30T11:51:45;30.10;;;25.47;;
16804;SDS011;8520;50.102;20.010;2024-01-30T11:54:15;32.03;;;25.87;;
16804;SDS011;8520;50.102;20.010;2024-01-30T11:56:43;28.10;;;25.27;;
16804;SDS011;8520;50.102;20.010;2024-01-30T11:59:13;27.27;;;24.40;;
16804;SDS011;8520;50.102;20.010;2024-01-30T12:01:41;30.50;;;25.53;;
16804;SDS011;8520;50.102;20.010;2024-01-30T12:04:09;27.00;;;24.20;;
16804;SDS011;8520;50.102;20.010;2024-01-30T12:06:38;24.77;;;22.17;;
16804;SDS011;8520;50.102;20.010;2024-01-30T12:09:06;27.13;;;23.83;;
16804;SDS011;8520;50.102;20.010;2024-01-30T12:11:43;27.10;;;24.13;;
16804;SDS011;8520;50.102;20.010;2024-01-30T12:14:12;30.13;;;23.80;;
16804;SDS011;8520;50.102;20.010;2024-01-30T12:16:40;30.90;;;24.20;;
16804;SDS011;8520;50.102;20.010;2024-01-30T12:19:10;27.83;;;24.67;;
16804;SDS011;8520;50.102;20.010;2024-01-30T12:21:44;26.53;;;23.47;;
16804;SDS011;8520;50.102;20.010;2024-01-30T12:24:12;30.38;;;24.10;;
16804;SDS011;8520;50.102;20.010;2024-01-30T12:26:40;25.95;;;23.02;;
16804;SDS011;8520;50.102;20.010;2024-01-30T12:29:08;26.88;;;24.35;;
16804;SDS011;8520;50.102;20.010;2024-01-30T12:31:37;26.35;;;23.60;;
16804;SDS011;8520;50.102;20.010;2024-01-30T12:34:05;27.00;;;24.10;;
16804;SDS011;8520;50.102;20.010;2024-01-30T12:36:33;31.95;;;26.65;;
16804;SDS011;8520;50.102;20.010;2024-01-30T12:39:02;27.10;;;23.52;;
16804;SDS011;8520;50.102;20.010;2024-01-30T12:41:30;33.13;;;27.00;;
16804;SDS011;8520;50.102;20.010;2024-01-30T12:43:59;32.47;;;27.27;;
16804;SDS011;8520;50.102;20.010;2024-01-30T12:46:27;34.20;;;30.30;;
16804;SDS011;8520;50.102;20.010;2024-01-30T12:48:57;35.45;;;31.75;;
16804;SDS011;8520;50.102;20.010;2024-01-30T12:51:25;37.58;;;33.53;;
16804;SDS011;8520;50.102;20.010;2024-01-30T12:53:53;38.63;;;34.42;;
16804;SDS011;8520;50.102;20.010;2024-01-30T12:56:21;40.70;;;36.20;;
16804;SDS011;8520;50.102;20.010;2024-01-30T12:58:49;55.38;;;40.78;;
16804;SDS011;8520;50.102;20.010;2024-01-30T13:01:21;42.90;;;38.25;;
16804;SDS011;8520;50.102;20.010;2024-01-30T13:03:49;47.72;;;40.70;;
16804;SDS011;8520;50.102;20.010;2024-01-30T13:06:18;49.30;;;40.33;;
16804;SDS011;8520;50.102;20.010;2024-01-30T13:08:46;56.03;;;42.85;;
16804;SDS011;8520;50.102;20.010;2024-01-30T13:11:14;55.83;;;43.80;;
16804;SDS011;8520;50.102;20.010;2024-01-30T13:13:47;56.17;;;45.08;;
16804;SDS011;8520;50.102;20.010;2024-01-30T13:16:15;55.72;;;45.58;;
16804;SDS011;8520;50.102;20.010;2024-01-30T13:18:43;54.00;;;44.30;;
16804;SDS011;8520;50.102;20.010;2024-01-30T13:21:11;54.47;;;43.03;;
16804;SDS011;8520;50.102;20.010;2024-01-30T13:23:41;63.50;;;48.47;;
16804;SDS011;8520;50.102;20.010;2024-01-30T13:26:09;59.03;;;45.35;;
16804;SDS011;8520;50.102;20.010;2024-01-30T13:28:37;51.33;;;44.78;;
16804;SDS011;8520;50.102;20.010;2024-01-30T13:31:05;59.80;;;45.85;;
16804;SDS011;8520;50.102;20.010;2024-01-30T13:33:33;55.75;;;45.65;;
16804;SDS011;8520;50.102;20.010;2024-01-30T13:36:01;51.63;;;45.40;;
16804;SDS011;8520;50.102;20.010;2024-01-30T13:38:29;56.00;;;46.72;;
16804;SDS011;8520;50.102;20.010;2024-01-30T13:40:59;59.03;;;47.67;;
16804;SDS011;8520;50.102;20.010;2024-01-30T13:43:27;56.80;;;47.47;;
16804;SDS011;8520;50.102;20.010;2024-01-30T13:45:55;61.50;;;48.90;;
16804;SDS011;8520;50.102;20.010;2024-01-30T13:48:24;56.30;;;46.30;;
16804;SDS011;8520;50.102;20.010;2024-01-30T13:50:53;64.95;;;47.28;;
16804;SDS011;8520;50.102;20.010;2024-01-30T13:53:21;57.67;;;47.47;;
16804;SDS011;8520;50.102;20.010;2024-01-30T13:55:49;58.92;;;45.10;;
16804;SDS011;8520;50.102;20.010;2024-01-30T13:58:19;53.53;;;44.92;;
16804;SDS011;8520;50.102;20.010;2024-01-30T14:00:47;56.92;;;46.30;;
16804;SDS011;8520;50.102;20.010;2024-01-30T14:03:16;58.80;;;46.35;;
16804;SDS011;8520;50.102;20.010;2024-01-30T14:05:46;54.65;;;45.90;;
16804;SDS011;8520;50.102;20.010;2024-01-30T14:08:15;53.20;;;44.13;;
16804;SDS011;8520;50.102;20.010;2024-01-30T14:10:43;58.08;;;45.30;;
16804;SDS011;8520;50.102;20.010;2024-01-30T14:13:11;56.55;;;44.72;;
16804;SDS011;8520;50.102;20.010;2024-01-30T14:15:40;61.58;;;47.00;;
16804;SDS011;8520;50.102;20.010;2024-01-30T14:18:08;59.05;;;46.35;;
16804;SDS011;8520;50.102;20.010;2024-01-30T14:20:38;55.13;;;45.55;;
16804;SDS011;8520;50.102;20.010;2024-01-30T14:23:06;53.60;;;44.92;;
16804;SDS011;8520;50.102;20.010;2024-01-30T14:25:34;59.63;;;45.35;;
16804;SDS011;8520;50.102;20.010;2024-01-30T14:28:03;55.20;;;44.80;;
16804;SDS011;8520;50.102;20.010;2024-01-30T14:30:33;53.25;;;45.75;;